Time;durP1;ratioP1;P1;durP2;ratioP2;P2;SDS_P1;SDS_P2;PMS_P1;PMS_P2;Temp;Humidity;BMP_temperature;BMP_pressure;BME280_temperature;BME280_humidity;BME280_pressure;Samples;Min_cycle;Max_cycle;Signal;HPM_P1;HPM_P2
2022/10/16 00:00:32;;;;;;;6.50;5.30;;;14.70;99.90;;;;;;5079170;28;20448;-79
2022/10/16 00:02:59;;;;;;;8.67;6.13;;;14.70;99.90;;;;;;5081136;28;20519;-78
2022/10/16 00:05:26;;;;;;;6.30;5.60;;;14.80;99.90;;;;;;5079546;28;20462;-79
2022/10/16 00:07:52;;;;;;;5.40;4.90;;;14.80;99.90;;;;;;5077773;28;20975;-79
2022/10/16 00:10:19;;;;;;;5.30;4.80;;;14.80;99.90;;;;;;5078286;28;20539;-78
2022/10/16 00:12:45;;;;;;;6.87;5.20;;;14.90;99.90;;;;;;5085742;28;20444;-77
2022/10/16 00:15:12;;;;;;;8.50;6.80;;;14.80;99.90;;;;;;5081872;28;20475;-80
2022/10/16 00:17:40;;;;;;;8.23;7.10;;;15.00;99.90;;;;;;5077648;28;20480;-79
2022/10/16 00:20:08;;;;;;;7.17;6.17;;;14.90;99.90;;;;;;5078083;28;20445;-80
2022/10/16 00:22:35;;;;;;;8.30;6.53;;;14.90;99.90;;;;;;5077787;28;20455;-80
2022/10/16 00:25:01;;;;;;;6.00;5.30;;;15.00;99.90;;;;;;5077676;28;20854;-80
2022/10/16 00:27:28;;;;;;;5.37;4.87;;;15.00;99.90;;;;;;5077748;28;20935;-80
2022/10/16 00:29:55;;;;;;;4.00;3.70;;;15.00;99.90;;;;;;5078008;28;20884;-79
2022/10/16 00:32:21;;;;;;;3.90;3.60;;;15.00;99.90;;;;;;5077938;28;20441;-79
2022/10/16 00:34:49;;;;;;;5.33;3.90;;;15.00;99.90;;;;;;5077686;28;20448;-80
2022/10/16 00:37:16;;;;;;;5.17;3.60;;;15.00;99.90;;;;;;5077613;28;20487;-80
2022/10/16 00:39:43;;;;;;;5.10;4.70;;;15.00;99.90;;;;;;5078059;28;20468;-78
2022/10/16 00:42:15;;;;;;;6.80;5.37;;;15.00;99.90;;;;;;5079872;28;20860;-79
2022/10/16 00:44:45;;;;;;;12.40;6.97;;;15.00;99.90;;;;;;5083224;28;20430;-80
2022/10/16 00:47:16;;;;;;;7.70;6.53;;;15.10;99.90;;;;;;5084830;28;20429;-78
2022/10/16 00:49:43;;;;;;;6.53;5.70;;;15.10;99.90;;;;;;5088872;28;20889;-79
2022/10/16 00:52:11;;;;;;;5.93;5.40;;;15.10;99.90;;;;;;5093284;28;20452;-80
2022/10/16 00:54:38;;;;;;;11.03;5.37;;;15.10;99.90;;;;;;5091884;28;20471;-80
2022/10/16 00:57:07;;;;;;;5.67;4.13;;;15.10;99.90;;;;;;5077847;28;20441;-78
2022/10/16 00:59:36;;;;;;;3.87;3.57;;;15.10;99.90;;;;;;5077832;28;20475;-78
2022/10/16 01:02:03;;;;;;;3.77;3.30;;;15.10;99.90;;;;;;5086443;28;20445;-78
2022/10/16 01:04:35;;;;;;;3.03;2.83;;;15.00;99.90;;;;;;5085683;28;20448;-78
2022/10/16 01:07:10;;;;;;;3.37;3.07;;;15.10;99.90;;;;;;5081844;28;20429;-80
2022/10/16 01:09:48;;;;;;;3.87;3.57;;;15.10;99.90;;;;;;5076848;28;20816;-80
2022/10/16 01:12:20;;;;;;;4.83;4.33;;;15.10;99.90;;;;;;5077624;28;20459;-80
2022/10/16 01:14:52;;;;;;;5.20;4.63;;;15.10;99.90;;;;;;5076987;28;20429;-79
2022/10/16 01:17:23;;;;;;;4.60;4.20;;;15.00;99.90;;;;;;5078551;28;20816;-79
2022/10/16 01:20:06;;;;;;;4.40;4.00;;;15.10;99.90;;;;;;5077328;28;20472;-80
2022/10/16 01:22:44;;;;;;;3.83;3.53;;;15.00;99.90;;;;;;5077465;28;20487;-78
2022/10/16 01:25:19;;;;;;;3.90;3.63;;;15.00;99.90;;;;;;5079519;28;20432;-79
2022/10/16 01:27:49;;;;;;;4.67;4.27;;;15.00;99.90;;;;;;5078750;28;20483;-79
2022/10/16 01:30:21;;;;;;;4.23;3.80;;;14.90;99.90;;;;;;5078512;28;20468;-79
2022/10/16 01:32:53;;;;;;;6.00;5.40;;;15.00;99.90;;;;;;5079465;28;20498;-79
2022/10/16 01:35:24;;;;;;;4.10;3.90;;;14.90;99.90;;;;;;5082568;28;20784;-80
2022/10/16 01:37:57;;;;;;;4.83;3.80;;;15.00;99.90;;;;;;5095392;28;20464;-79
2022/10/16 01:40:27;;;;;;;3.80;3.50;;;14.90;99.90;;;;;;5095488;28;20429;-79
2022/10/16 01:43:01;;;;;;;3.23;2.77;;;14.90;99.90;;;;;;5082414;28;20447;-81
2022/10/16 01:45:30;;;;;;;3.67;3.37;;;14.90;99.90;;;;;;5077559;28;20482;-80
2022/10/16 01:47:59;;;;;;;3.60;3.30;;;14.90;99.90;;;;;;5076375;28;20469;-80
2022/10/16 01:50:26;;;;;;;3.47;3.17;;;14.90;99.90;;;;;;5076613;28;20436;-80
2022/10/16 01:52:57;;;;;;;3.30;3.10;;;15.00;99.90;;;;;;5076493;28;20460;-80
2022/10/16 01:55:29;;;;;;;3.07;2.87;;;14.80;99.90;;;;;;5076471;28;20491;-80
2022/10/16 01:57:59;;;;;;;2.43;2.33;;;14.80;99.90;;;;;;5075855;28;20519;-80
2022/10/16 02:00:27;;;;;;;2.70;2.50;;;14.80;99.90;;;;;;5076130;28;20453;-79
2022/10/16 02:02:55;;;;;;;2.83;2.57;;;14.90;99.90;;;;;;5081603;28;20441;-78
2022/10/16 02:05:27;;;;;;;3.00;2.70;;;14.80;99.90;;;;;;5083259;28;20473;-78
2022/10/16 02:07:54;;;;;;;2.93;2.63;;;14.80;99.90;;;;;;5083260;28;20465;-78
2022/10/16 02:10:21;;;;;;;4.47;2.83;;;14.90;99.90;;;;;;5082601;28;20445;-78
2022/10/16 02:12:53;;;;;;;3.33;3.03;;;14.90;99.90;;;;;;5077550;28;20448;-80
2022/10/16 02:15:21;;;;;;;3.70;2.87;;;14.90;99.90;;;;;;5077688;28;20482;-80
2022/10/16 02:17:48;;;;;;;5.93;4.90;;;14.80;99.90;;;;;;5082581;28;20485;-79
2022/10/16 02:20:15;;;;;;;6.40;4.00;;;14.90;99.90;;;;;;5078017;28;20510;-80
2022/10/16 02:22:44;;;;;;;9.27;4.67;;;15.00;99.90;;;;;;5075579;28;20957;-80
2022/10/16 02:25:16;;;;;;;10.80;7.10;;;15.00;99.90;;;;;;5075699;28;20467;-80
2022/10/16 02:27:49;;;;;;;9.10;6.73;;;14.70;99.90;;;;;;5076039;28;20425;-80
2022/10/16 02:30:25;;;;;;;4.57;4.27;;;15.00;99.90;;;;;;5075183;28;20433;-80
2022/10/16 02:32:54;;;;;;;3.60;3.30;;;15.00;99.90;;;;;;5075857;28;20443;-80
2022/10/16 02:35:23;;;;;;;3.17;2.97;;;15.00;99.90;;;;;;5075485;28;20523;-80
2022/10/16 02:37:51;;;;;;;3.33;3.13;;;15.10;99.90;;;;;;5075250;28;20994;-80
2022/10/16 02:40:19;;;;;;;3.20;2.37;;;15.00;99.90;;;;;;5075428;28;20826;-80
2022/10/16 02:42:50;;;;;;;4.20;2.90;;;15.00;99.90;;;;;;5075753;28;20449;-81
2022/10/16 02:45:18;;;;;;;2.77;2.40;;;15.00;99.90;;;;;;5075462;28;20494;-78
2022/10/16 02:47:46;;;;;;;2.80;2.60;;;14.90;99.90;;;;;;5083661;28;20515;-77
2022/10/16 02:50:13;;;;;;;2.50;2.40;;;15.00;99.90;;;;;;5105243;22;21128;-76
2022/10/16 02:52:39;;;;;;;2.60;2.40;;;15.00;99.90;;;;;;5093178;28;20436;-77
2022/10/16 02:55:07;;;;;;;2.70;2.33;;;15.00;99.90;;;;;;5093200;28;20448;-77
2022/10/16 02:57:34;;;;;;;2.60;2.40;;;15.00;99.90;;;;;;5093093;28;20442;-76
2022/10/16 03:00:00;;;;;;;4.30;2.53;;;15.10;99.90;;;;;;5093067;28;20460;-76
2022/10/16 03:02:27;;;;;;;2.17;2.07;;;15.00;99.90;;;;;;5092896;28;20494;-76
2022/10/16 03:04:55;;;;;;;2.40;2.20;;;15.00;99.90;;;;;;5092868;28;20452;-76
2022/10/16 03:07:22;;;;;;;3.90;2.33;;;15.00;99.90;;;;;;5093462;28;20799;-76
2022/10/16 03:09:48;;;;;;;3.37;2.53;;;15.00;99.90;;;;;;5093221;28;20513;-76
2022/10/16 03:12:15;;;;;;;2.90;2.60;;;15.00;99.90;;;;;;5092848;28;20443;-76
2022/10/16 03:14:42;;;;;;;2.93;2.73;;;15.00;99.90;;;;;;5093134;28;20423;-77
2022/10/16 03:17:08;;;;;;;2.40;2.30;;;15.00;99.90;;;;;;5101341;28;20448;-77
2022/10/16 03:19:35;;;;;;;5.93;2.70;;;15.00;99.90;;;;;;5093121;28;21002;-76
2022/10/16 03:22:03;;;;;;;2.00;1.90;;;14.80;99.90;;;;;;5093168;28;20444;-76
2022/10/16 03:24:30;;;;;;;2.70;2.50;;;14.90;99.90;;;;;;5092863;28;20501;-77
2022/10/16 03:26:57;;;;;;;2.50;2.40;;;14.90;99.90;;;;;;5092966;28;20448;-76
2022/10/16 03:29:25;;;;;;;2.33;2.20;;;14.90;99.90;;;;;;5092679;28;20459;-75
2022/10/16 03:31:52;;;;;;;2.23;2.13;;;14.80;99.90;;;;;;5092410;28;20539;-76
2022/10/16 03:34:18;;;;;;;3.47;2.60;;;14.80;99.90;;;;;;5092821;28;20447;-76
2022/10/16 03:36:45;;;;;;;3.53;2.53;;;;;;;;;;5092600;28;20481;-76
2022/10/16 03:39:14;;;;;;;2.60;2.40;;;14.80;99.90;;;;;;5092628;28;20491;-75
2022/10/16 03:41:40;;;;;;;2.47;2.37;;;14.80;99.90;;;;;;5092815;28;20447;-75
2022/10/16 03:44:07;;;;;;;2.77;2.50;;;14.80;99.90;;;;;;5096761;28;20817;-75
2022/10/16 03:46:34;;;;;;;2.13;2.03;;;14.80;99.90;;;;;;5096462;28;20448;-76
2022/10/16 03:49:00;;;;;;;3.07;2.77;;;14.80;99.90;;;;;;5096131;28;20865;-75
2022/10/16 03:51:27;;;;;;;2.40;2.20;;;14.70;99.90;;;;;;5096212;28;20866;-75
2022/10/16 03:53:54;;;;;;;2.47;2.27;;;14.70;99.90;;;;;;5096252;28;20500;-76
2022/10/16 03:56:22;;;;;;;2.83;2.63;;;14.70;99.90;;;;;;5096232;28;20451;-75
2022/10/16 03:58:48;;;;;;;2.83;2.10;;;14.70;99.90;;;;;;5095928;28;20517;-75
2022/10/16 04:01:15;;;;;;;3.73;2.90;;;14.70;99.90;;;;;;5096161;28;20444;-76
2022/10/16 04:03:42;;;;;;;3.23;3.00;;;14.70;99.90;;;;;;5096114;28;20452;-77
2022/10/16 04:06:08;;;;;;;3.20;2.90;;;14.70;99.90;;;;;;5095727;28;21075;-76
2022/10/16 04:08:36;;;;;;;2.73;2.53;;;14.60;99.90;;;;;;5095985;28;20867;-76
2022/10/16 04:11:03;;;;;;;2.90;2.73;;;14.60;99.90;;;;;;5095863;28;20550;-76
2022/10/16 04:13:31;;;;;;;4.30;2.43;;;14.60;99.90;;;;;;5103241;28;20448;-76
2022/10/16 04:15:58;;;;;;;3.57;3.27;;;14.60;99.90;;;;;;5102858;28;20454;-76
2022/10/16 04:18:26;;;;;;;4.23;3.70;;;14.60;99.90;;;;;;5100646;28;20492;-76
2022/10/16 04:20:53;;;;;;;3.63;3.10;;;14.60;99.90;;;;;;5095844;28;20423;-77
2022/10/16 04:23:20;;;;;;;3.67;3.37;;;14.60;99.90;;;;;;5095788;28;20456;-75
2022/10/16 04:25:47;;;;;;;4.10;3.70;;;14.60;99.90;;;;;;5095673;28;20807;-75
2022/10/16 04:28:13;;;;;;;3.70;3.40;;;14.40;99.90;;;;;;5095454;28;20996;-75
2022/10/16 04:30:41;;;;;;;4.20;3.43;;;14.60;99.90;;;;;;5096174;28;20942;-76
2022/10/16 04:33:09;;;;;;;4.27;3.97;;;14.70;99.90;;;;;;5095548;28;20945;-75
2022/10/16 04:35:36;;;;;;;4.20;3.80;;;14.50;99.90;;;;;;5095241;28;21007;-75
2022/10/16 04:38:02;;;;;;;3.73;3.43;;;14.50;99.90;;;;;;5095399;28;20443;-76
2022/10/16 04:40:32;;;;;;;3.57;3.27;;;14.50;99.90;;;;;;5095453;28;20443;-77
2022/10/16 04:42:59;;;;;;;6.00;3.60;;;14.40;99.90;;;;;;5095365;28;20497;-75
2022/10/16 04:45:26;;;;;;;4.00;3.50;;;14.40;99.90;;;;;;5095218;28;20452;-76
2022/10/16 04:47:57;;;;;;;3.97;3.63;;;14.40;99.90;;;;;;5095166;28;20470;-75
2022/10/16 04:50:23;;;;;;;3.37;3.17;;;14.30;99.90;;;;;;5095043;28;20454;-75
2022/10/16 04:52:50;;;;;;;3.87;3.47;;;14.30;99.90;;;;;;5095145;28;20473;-76
2022/10/16 04:55:17;;;;;;;4.80;3.87;;;14.30;99.90;;;;;;5095092;28;20443;-75
2022/10/16 04:57:43;;;;;;;3.50;3.20;;;14.20;99.90;;;;;;5095041;28;20448;-76
2022/10/16 05:00:11;;;;;;;3.30;2.90;;;14.20;99.90;;;;;;5094899;28;20480;-75
2022/10/16 05:02:37;;;;;;;4.13;3.83;;;14.30;99.90;;;;;;5094644;28;20447;-75
2022/10/16 05:05:06;;;;;;;3.13;2.93;;;14.20;99.90;;;;;;5094796;28;20458;-75
2022/10/16 05:07:33;;;;;;;4.40;3.70;;;14.20;99.90;;;;;;5094847;28;20451;-75
2022/10/16 05:10:00;;;;;;;3.40;3.10;;;14.20;99.90;;;;;;5094702;28;20468;-76
2022/10/16 05:12:26;;;;;;;4.00;2.77;;;14.20;99.90;;;;;;5094747;28;20529;-75
2022/10/16 05:14:58;;;;;;;3.97;3.20;;;14.20;99.90;;;;;;5095504;28;20502;-75
2022/10/16 05:17:24;;;;;;;3.27;2.97;;;14.10;99.90;;;;;;5094452;28;20481;-75
2022/10/16 05:19:51;;;;;;;3.33;3.13;;;14.10;99.90;;;;;;5094464;28;20483;-75
2022/10/16 05:22:19;;;;;;;3.10;2.77;;;14.10;99.90;;;;;;5094845;28;20848;-77
2022/10/16 05:24:46;;;;;;;3.57;3.27;;;14.10;99.90;;;;;;5094322;28;20938;-75
2022/10/16 05:27:18;;;;;;;3.83;3.53;;;14.10;99.90;;;;;;5094592;28;20452;-75
2022/10/16 05:29:45;;;;;;;3.77;3.47;;;14.10;99.90;;;;;;5094410;28;20464;-75
2022/10/16 05:32:12;;;;;;;3.80;3.50;;;14.10;99.90;;;;;;5094545;28;20448;-75
2022/10/16 05:34:38;;;;;;;3.73;2.90;;;14.10;99.90;;;;;;5094262;28;20447;-75
2022/10/16 05:37:05;;;;;;;3.47;3.17;;;14.00;99.90;;;;;;5094372;28;20448;-75
2022/10/16 05:39:33;;;;;;;3.17;2.87;;;14.00;99.90;;;;;;5094075;28;20479;-75
2022/10/16 05:42:00;;;;;;;3.50;3.20;;;14.00;99.90;;;;;;5094217;28;20797;-75
2022/10/16 05:44:26;;;;;;;3.20;3.00;;;14.00;99.90;;;;;;5094196;28;20861;-76
2022/10/16 05:46:53;;;;;;;3.53;3.33;;;14.00;99.90;;;;;;5094110;28;20447;-75
2022/10/16 05:49:20;;;;;;;3.13;2.93;;;14.00;99.90;;;;;;5093802;28;20513;-75
2022/10/16 05:51:46;;;;;;;3.67;3.37;;;14.00;99.90;;;;;;5093968;28;20475;-75
2022/10/16 05:54:13;;;;;;;3.50;3.20;;;14.00;99.90;;;;;;5094002;28;20635;-75
2022/10/16 05:56:41;;;;;;;3.30;3.07;;;14.10;99.90;;;;;;5093889;28;20821;-75
2022/10/16 05:59:08;;;;;;;3.80;3.50;;;14.10;99.90;;;;;;5093751;28;20454;-75
2022/10/16 06:01:35;;;;;;;3.97;3.30;;;14.10;99.90;;;;;;5093717;28;20942;-75
2022/10/16 06:04:02;;;;;;;2.80;2.70;;;14.10;99.90;;;;;;5094195;28;20486;-75
2022/10/16 06:06:30;;;;;;;3.00;2.80;;;14.10;99.90;;;;;;5093538;28;20443;-75
2022/10/16 06:08:59;;;;;;;2.80;2.70;;;14.10;99.90;;;;;;5093532;28;20475;-75
2022/10/16 06:11:28;;;;;;;3.47;3.20;;;14.10;99.90;;;;;;5093504;28;20543;-75
2022/10/16 06:13:58;;;;;;;3.43;3.20;;;14.10;99.90;;;;;;5093557;28;20447;-76
2022/10/16 06:16:25;;;;;;;3.57;3.27;;;14.20;99.90;;;;;;5093257;28;20505;-75
2022/10/16 06:18:53;;;;;;;3.20;3.00;;;14.10;99.90;;;;;;5093496;28;20894;-74
2022/10/16 06:21:22;;;;;;;3.33;3.13;;;14.10;99.90;;;;;;5093798;28;20497;-74
2022/10/16 06:23:49;;;;;;;3.20;2.90;;;14.20;99.90;;;;;;5093512;28;20439;-75
2022/10/16 06:26:17;;;;;;;2.70;2.60;;;14.30;99.90;;;;;;5093634;28;20451;-74
2022/10/16 06:28:45;;;;;;;3.13;2.93;;;14.30;99.90;;;;;;5093005;28;21001;-74
2022/10/16 06:31:14;;;;;;;3.00;2.80;;;14.30;99.90;;;;;;5093420;28;20444;-74
2022/10/16 06:33:41;;;;;;;2.87;2.67;;;14.40;99.90;;;;;;5092992;28;20930;-74
2022/10/16 06:36:11;;;;;;;2.63;2.40;;;14.40;99.90;;;;;;5093305;28;20448;-74
2022/10/16 06:38:38;;;;;;;3.30;3.10;;;14.50;99.90;;;;;;5093290;28;20503;-76
2022/10/16 06:41:06;;;;;;;3.00;2.70;;;14.50;99.90;;;;;;5093106;28;20505;-75
2022/10/16 06:43:35;;;;;;;2.30;2.20;;;14.60;99.90;;;;;;5093298;28;20463;-74
2022/10/16 06:46:02;;;;;;;4.17;3.77;;;13.70;99.90;;;;;;5093256;28;20568;-74
2022/10/16 06:48:31;;;;;;;3.60;3.30;;;14.60;99.90;;;;;;5093081;28;20460;-74
2022/10/16 06:50:59;;;;;;;4.73;3.40;;;14.60;99.90;;;;;;5093242;28;20515;-74
2022/10/16 06:53:25;;;;;;;3.10;2.90;;;14.70;99.90;;;;;;5093343;28;20477;-75
2022/10/16 06:55:52;;;;;;;3.27;3.07;;;14.70;99.90;;;;;;5093234;28;20839;-74
2022/10/16 06:58:19;;;;;;;5.73;2.87;;;14.90;99.90;;;;;;5093200;28;20525;-74
2022/10/16 07:00:46;;;;;;;3.07;2.77;;;14.70;99.90;;;;;;5093035;28;20973;-75
2022/10/16 07:03:13;;;;;;;3.23;2.93;;;14.80;99.90;;;;;;5093075;28;20447;-74
2022/10/16 07:05:42;;;;;;;2.93;2.80;;;14.80;99.90;;;;;;5093174;28;20448;-74
2022/10/16 07:08:10;;;;;;;3.40;3.20;;;14.60;99.90;;;;;;5093400;28;20440;-74
2022/10/16 07:10:36;;;;;;;2.57;2.47;;;14.80;99.90;;;;;;5092903;28;20443;-74
2022/10/16 07:13:03;;;;;;;2.80;2.60;;;15.00;99.90;;;;;;5092761;28;20447;-74
2022/10/16 07:15:30;;;;;;;3.07;2.80;;;15.10;99.90;;;;;;5093021;28;20780;-74
2022/10/16 07:17:56;;;;;;;3.93;3.23;;;15.20;99.90;;;;;;5095325;28;20499;-75
2022/10/16 07:20:23;;;;;;;3.23;2.90;;;15.30;99.90;;;;;;5096769;28;20476;-75
2022/10/16 07:22:51;;;;;;;3.17;2.87;;;15.50;99.90;;;;;;5096645;28;20938;-76
2022/10/16 07:25:18;;;;;;;2.83;2.70;;;15.50;99.90;;;;;;5096787;28;20530;-77
2022/10/16 07:27:45;;;;;;;4.60;3.07;;;15.60;99.90;;;;;;5096716;28;20804;-75
2022/10/16 07:30:12;;;;;;;3.10;2.70;;;15.60;99.90;;;;;;5096724;28;20876;-76
2022/10/16 07:32:39;;;;;;;3.07;2.80;;;;;;;;;;5096973;28;20447;-76
2022/10/16 07:35:06;;;;;;;3.70;3.33;;;15.80;99.90;;;;;;5097099;28;20491;-76
2022/10/16 07:37:33;;;;;;;2.90;2.70;;;15.90;99.90;;;;;;5096634;28;20451;-76
2022/10/16 07:40:01;;;;;;;2.77;2.47;;;15.90;99.90;;;;;;5096318;28;20488;-75
2022/10/16 07:42:28;;;;;;;3.43;2.97;;;16.00;99.90;;;;;;5096367;28;20934;-74
2022/10/16 07:44:55;;;;;;;3.83;2.70;;;16.00;99.90;;;;;;5096330;28;20523;-74
2022/10/16 07:47:21;;;;;;;2.90;2.70;;;16.10;99.90;;;;;;5097313;28;20451;-75
2022/10/16 07:49:48;;;;;;;3.17;2.87;;;;;;;;;;5095926;28;20474;-75
2022/10/16 07:52:15;;;;;;;3.40;3.20;;;;;;;;;;5096016;28;20451;-75
2022/10/16 07:54:42;;;;;;;11.30;9.63;;;16.20;99.90;;;;;;5096298;28;20451;-76
2022/10/16 07:57:10;;;;;;;4.10;3.20;;;16.20;99.90;;;;;;5096438;28;20443;-76
2022/10/16 07:59:37;;;;;;;3.93;2.90;;;16.30;99.90;;;;;;5096272;28;20483;-76
2022/10/16 08:02:03;;;;;;;2.60;2.30;;;16.30;99.90;;;;;;5096135;28;20447;-75
2022/10/16 08:04:30;;;;;;;3.53;2.97;;;16.20;99.90;;;;;;5096017;28;20559;-76
2022/10/16 08:06:57;;;;;;;2.23;2.10;;;16.30;99.90;;;;;;5096351;28;20447;-75
2022/10/16 08:09:23;;;;;;;2.43;2.23;;;16.30;99.90;;;;;;5096078;28;20468;-75
2022/10/16 08:11:52;;;;;;;3.63;2.67;;;16.30;99.90;;;;;;5096002;28;20444;-75
2022/10/16 08:14:20;;;;;;;2.70;2.50;;;16.40;99.90;;;;;;5095812;28;20483;-75
2022/10/16 08:16:47;;;;;;;2.10;2.00;;;16.50;99.90;;;;;;5095869;28;20440;-75
2022/10/16 08:19:15;;;;;;;3.17;2.40;;;16.50;99.90;;;;;;5095742;28;20464;-75
2022/10/16 08:21:42;;;;;;;3.03;2.73;;;16.50;99.90;;;;;;5095647;28;20455;-75
2022/10/16 08:24:09;;;;;;;2.60;2.40;;;16.50;99.90;;;;;;5095546;28;20455;-76
2022/10/16 08:26:36;;;;;;;3.87;2.37;;;;;;;;;;5096075;28;20450;-75
2022/10/16 08:29:03;;;;;;;2.80;2.60;;;16.60;99.90;;;;;;5095108;28;20468;-74
2022/10/16 08:31:31;;;;;;;2.70;2.43;;;16.70;99.90;;;;;;5095499;28;20440;-75
2022/10/16 08:33:57;;;;;;;4.77;2.10;;;16.70;99.90;;;;;;5095536;28;20929;-75
2022/10/16 08:36:24;;;;;;;2.73;2.53;;;16.80;99.90;;;;;;5095341;28;20871;-74
2022/10/16 08:38:53;;;;;;;5.87;4.07;;;16.80;99.90;;;;;;5095024;28;20475;-74
2022/10/16 08:41:53;;;;;;;3.67;3.37;;;16.80;99.90;;;;;;5095312;28;20846;-75
2022/10/16 08:44:36;;;;;;;2.63;2.43;;;16.90;99.90;;;;;;5091325;28;20444;-74
2022/10/16 08:47:14;;;;;;;2.80;2.60;;;16.90;99.90;;;;;;5095321;28;20447;-75
2022/10/16 08:49:43;;;;;;;3.83;2.07;;;16.90;99.90;;;;;;5095024;28;20517;-75
2022/10/16 08:52:13;;;;;;;2.43;2.23;;;16.90;99.90;;;;;;5094586;28;20996;-73
2022/10/16 08:54:44;;;;;;;5.30;2.60;;;16.90;99.90;;;;;;5094954;28;20428;-75
2022/10/16 08:57:15;;;;;;;2.63;2.43;;;17.00;99.90;;;;;;5094877;28;20424;-74
2022/10/16 08:59:41;;;;;;;6.40;5.80;;;16.90;99.90;;;;;;5094845;28;20460;-75
2022/10/16 09:02:27;;;;;;;3.47;3.17;;;17.00;99.90;;;;;;5094843;28;20447;-75
2022/10/16 09:05:17;;;;;;;2.57;2.37;;;16.90;99.90;;;;;;5095009;28;20428;-75
2022/10/16 09:07:50;;;;;;;2.57;2.37;;;16.90;99.90;;;;;;5094806;28;20481;-75
2022/10/16 09:10:29;;;;;;;2.80;2.03;;;16.80;99.90;;;;;;5094630;28;20456;-75
2022/10/16 09:13:03;;;;;;;5.23;4.40;;;16.90;99.90;;;;;;5094744;28;20809;-76
2022/10/16 09:15:36;;;;;;;2.33;2.17;;;17.00;99.90;;;;;;5096152;28;20432;-76
2022/10/16 09:18:13;;;;;;;2.53;2.30;;;18.30;99.90;;;;;;5098672;28;20456;-74
2022/10/16 09:20:49;;;;;;;3.10;2.80;;;17.20;99.90;;;;;;5100667;28;20459;-73
2022/10/16 09:23:19;;;;;;;4.03;2.47;;;17.40;99.90;;;;;;5097099;28;20480;-75
2022/10/16 09:25:49;;;;;;;2.53;2.03;;;18.00;99.90;;;;;;5094473;28;20489;-75
2022/10/16 09:28:16;;;;;;;3.23;2.00;;;17.80;99.90;;;;;;5094495;28;20468;-74
2022/10/16 09:30:43;;;;;;;5.70;3.30;;;17.50;99.90;;;;;;5094548;28;20844;-75
2022/10/16 09:33:14;;;;;;;2.30;2.20;;;17.60;99.90;;;;;;5094301;28;20460;-75
2022/10/16 09:35:42;;;;;;;4.70;2.70;;;17.60;99.90;;;;;;5093924;28;20902;-75
2022/10/16 09:38:10;;;;;;;4.63;4.13;;;17.70;99.90;;;;;;5094151;28;20452;-75
2022/10/16 09:40:39;;;;;;;4.87;2.30;;;17.50;99.90;;;;;;5093362;28;20480;-75
2022/10/16 09:43:21;;;;;;;4.77;3.13;;;17.40;99.90;;;;;;5095079;28;20455;-76
2022/10/16 09:45:56;;;;;;;4.20;3.80;;;17.50;99.90;;;;;;5094224;28;20489;-78
2022/10/16 09:48:27;;;;;;;3.37;3.10;;;17.60;99.90;;;;;;5093774;28;21038;-76
2022/10/16 09:50:58;;;;;;;7.50;5.30;;;17.70;99.90;;;;;;5094235;28;20450;-76
2022/10/16 09:53:26;;;;;;;9.20;6.03;;;17.90;99.90;;;;;;5093792;28;20964;-77
2022/10/16 09:55:54;;;;;;;3.00;2.70;;;17.90;99.90;;;;;;5093623;28;20976;-76
2022/10/16 09:58:23;;;;;;;9.37;4.90;;;18.20;99.90;;;;;;5093949;28;20495;-75
2022/10/16 10:00:53;;;;;;;4.13;3.00;;;17.90;99.90;;;;;;5093903;28;20899;-76
2022/10/16 10:03:35;;;;;;;2.87;2.47;;;17.80;99.90;;;;;;5093693;28;20499;-76
2022/10/16 10:06:07;;;;;;;7.17;5.60;;;17.70;99.90;;;;;;5093855;28;20434;-76
2022/10/16 10:08:34;;;;;;;4.83;4.30;;;17.70;99.90;;;;;;5093767;28;20872;-75
2022/10/16 10:11:01;;;;;;;12.67;6.50;;;17.70;99.90;;;;;;5093673;28;20444;-76
2022/10/16 10:13:27;;;;;;;2.33;2.13;;;17.70;99.90;;;;;;5093447;28;20851;-75
2022/10/16 10:15:55;;;;;;;7.93;5.80;;;17.80;99.90;;;;;;5093602;28;20439;-76
2022/10/16 10:18:23;;;;;;;3.40;3.10;;;18.00;99.90;;;;;;5093540;28;20448;-76
2022/10/16 10:21:00;;;;;;;3.53;3.23;;;18.00;99.90;;;;;;5093198;28;21024;-76
2022/10/16 10:23:28;;;;;;;4.10;3.70;;;18.10;99.90;;;;;;5093940;28;20405;-76
2022/10/16 10:26:00;;;;;;;2.47;2.30;;;18.10;99.90;;;;;;5093747;28;20443;-75
2022/10/16 10:28:46;;;;;;;6.37;4.17;;;18.10;99.90;;;;;;5093461;28;20521;-76
2022/10/16 10:31:20;;;;;;;2.67;2.47;;;18.30;99.90;;;;;;5095013;28;20436;-76
2022/10/16 10:33:54;;;;;;;5.30;2.83;;;18.20;99.90;;;;;;5093664;28;20434;-76
2022/10/16 10:36:31;;;;;;;3.30;2.60;;;18.30;99.90;;;;;;5093532;28;20473;-76
2022/10/16 10:39:00;;;;;;;12.37;9.07;;;18.40;99.90;;;;;;5093634;28;20521;-75
2022/10/16 10:41:59;;;;;;;4.83;4.07;;;18.40;99.90;;;;;;5093482;28;20482;-76
2022/10/16 10:44:40;;;;;;;2.13;1.93;;;18.40;99.90;;;;;;5093864;28;20395;-75
2022/10/16 10:47:18;;;;;;;5.53;3.53;;;18.50;99.90;;;;;;5093804;28;20428;-77
2022/10/16 10:49:55;;;;;;;2.13;2.03;;;18.50;99.90;;;;;;5093882;28;20486;-77
2022/10/16 10:52:42;;;;;;;1.67;1.57;;;18.60;99.90;;;;;;5098062;28;20424;-75
2022/10/16 10:55:21;;;;;;;8.57;5.73;;;18.50;99.90;;;;;;5099286;28;20432;-76
2022/10/16 10:58:14;;;;;;;10.30;6.87;;;18.60;99.90;;;;;;5098496;28;20438;-75
2022/10/16 11:00:50;;;;;;;11.70;9.73;;;18.70;99.90;;;;;;5097266;28;20893;-77
2022/10/16 11:03:32;;;;;;;6.67;4.10;;;18.60;99.90;;;;;;5097676;28;20423;-76
2022/10/16 11:06:00;;;;;;;2.80;2.30;;;18.70;99.90;;;;;;5097655;28;20436;-74
2022/10/16 11:08:34;;;;;;;11.10;5.77;;;18.70;99.90;;;;;;5097006;28;20460;-75
2022/10/16 11:11:05;;;;;;;10.93;8.00;;;18.80;99.90;;;;;;5097238;28;20473;-75
2022/10/16 11:13:37;;;;;;;6.20;3.43;;;18.90;99.90;;;;;;5097365;28;20528;-76
2022/10/16 11:16:12;;;;;;;6.47;4.70;;;19.00;99.90;;;;;;5098223;28;20436;-76
2022/10/16 11:18:50;;;;;;;5.23;4.23;;;19.30;99.90;;;;;;5097399;28;20463;-75
2022/10/16 11:21:20;;;;;;;11.60;10.40;;;19.30;99.90;;;;;;5096960;28;20464;-75
2022/10/16 11:23:55;;;;;;;7.37;5.00;;;19.50;99.90;;;;;;5097438;28;20484;-75
2022/10/16 11:26:25;;;;;;;10.30;9.10;;;19.50;99.90;;;;;;5097269;28;20436;-74
2022/10/16 11:28:55;;;;;;;2.47;1.90;;;19.50;1.00;;;;;;5097506;28;20459;-74
2022/10/16 11:31:31;;;;;;;2.87;2.10;;;19.40;91.90;;;;;;5096921;28;20447;-76
2022/10/16 11:34:05;;;;;;;3.53;3.20;;;19.20;1.00;;;;;;5097124;28;20439;-76
2022/10/16 11:36:37;;;;;;;2.20;2.00;;;19.30;1.00;;;;;;5096935;28;20455;-76
2022/10/16 11:39:17;;;;;;;2.43;1.80;;;19.10;99.90;;;;;;5097194;28;20509;-76
2022/10/16 11:41:48;;;;;;;4.87;4.00;;;19.00;99.90;;;;;;5097171;28;20536;-76
2022/10/16 11:44:23;;;;;;;10.60;3.10;;;18.90;99.90;;;;;;5097236;28;20432;-75
2022/10/16 11:46:58;;;;;;;4.30;1.57;;;18.90;99.90;;;;;;5096788;28;20489;-75
2022/10/16 11:49:27;;;;;;;3.50;3.00;;;18.90;1.00;;;;;;5096609;28;20486;-75
2022/10/16 11:52:03;;;;;;;4.63;2.60;;;18.90;1.00;;;;;;5096751;28;20860;-76
2022/10/16 11:54:36;;;;;;;5.13;3.70;;;19.00;99.90;;;;;;5096488;28;20447;-76
2022/10/16 11:57:12;;;;;;;2.80;2.47;;;19.00;99.90;;;;;;5096561;28;20436;-76
2022/10/16 11:59:47;;;;;;;1.87;1.73;;;19.10;1.00;;;;;;5096717;28;20459;-75
2022/10/16 12:02:31;;;;;;;8.33;5.53;;;18.90;1.00;;;;;;5096420;28;20489;-76
2022/10/16 12:05:10;;;;;;;3.30;2.77;;;18.90;1.00;;;;;;5096808;28;20436;-75
2022/10/16 12:07:42;;;;;;;3.57;3.13;;;18.90;99.90;;;;;;5096820;28;20435;-74
2022/10/16 12:10:21;;;;;;;5.80;5.17;;;18.90;99.90;;;;;;5097107;28;20468;-74
2022/10/16 12:12:48;;;;;;;9.90;7.83;;;18.90;99.90;;;;;;5097396;28;20424;-74
2022/10/16 12:15:22;;;;;;;4.57;3.00;;;18.90;1.00;;;;;;5095591;28;20455;-74
2022/10/16 12:17:50;;;;;;;10.70;7.60;;;18.90;1.00;;;;;;5096206;28;20403;-76
2022/10/16 12:20:23;;;;;;;5.33;3.40;;;18.90;99.90;;;;;;5095921;28;20472;-76
2022/10/16 12:22:54;;;;;;;21.50;13.27;;;19.00;99.90;;;;;;5095377;28;20973;-75
2022/10/16 12:25:27;;;;;;;12.10;8.90;;;18.90;1.00;;;;;;5095955;28;20460;-75
2022/10/16 12:27:57;;;;;;;12.70;9.80;;;19.00;99.90;;;;;;5096057;28;20433;-75
2022/10/16 12:30:26;;;;;;;3.43;2.17;;;19.00;1.00;;;;;;5095918;28;20537;-76
2022/10/16 12:32:58;;;;;;;3.90;3.40;;;19.10;99.90;;;;;;5096239;28;20448;-73
2022/10/16 12:35:29;;;;;;;20.70;15.00;;;19.10;1.00;;;;;;5095898;28;20459;-75
2022/10/16 12:38:05;;;;;;;6.67;4.90;;;19.20;6.00;;;;;;5096023;28;20867;-78
2022/10/16 12:40:36;;;;;;;3.07;2.50;;;19.30;1.00;;;;;;5096230;28;20794;-75
2022/10/16 12:43:13;;;;;;;4.20;2.50;;;19.30;99.90;;;;;;5095887;28;20420;-75
2022/10/16 12:45:40;;;;;;;39.93;27.23;;;19.20;99.90;;;;;;5096660;28;20862;-77
2022/10/16 12:48:21;;;;;;;2.67;2.33;;;19.10;1.00;;;;;;5096417;28;20492;-76
2022/10/16 12:50:48;;;;;;;4.97;3.00;;;19.30;99.90;;;;;;5096063;28;20899;-77
2022/10/16 12:53:20;;;;;;;5.00;3.87;;;19.30;1.00;;;;;;5096886;28;20451;-77
2022/10/16 12:55:58;;;;;;;7.80;5.87;;;19.30;1.00;;;;;;5095911;28;20482;-77
2022/10/16 12:58:50;;;;;;;6.40;4.63;;;19.30;99.90;;;;;;5096048;28;20467;-74
2022/10/16 13:01:30;;;;;;;6.40;4.37;;;19.30;1.00;;;;;;5095614;28;20468;-78